createdAt,value
2019-04-16T00:01:47.459Z,-0.48
2019-04-16T00:04:35.606Z,-0.42
2019-04-16T00:07:07.493Z,-0.48
2019-04-16T00:09:55.701Z,-0.39
2019-04-16T00:12:27.629Z,-0.31
2019-04-16T00:15:01.879Z,-0.24
2019-04-16T00:17:32.562Z,-0.16
2019-04-16T00:20:05.668Z,-0.14
2019-04-16T00:22:39.757Z,-0.09
2019-04-16T00:25:10.386Z,0.05
2019-04-16T00:27:40.785Z,0.16
2019-04-16T00:30:12.481Z,0.31
2019-04-16T00:32:43.112Z,0.45
2019-04-16T00:35:15.689Z,0.55
2019-04-16T00:37:46.109Z,0.85
2019-04-16T00:40:16.900Z,0.88
2019-04-16T00:42:47.192Z,1.00
2019-04-16T00:45:17.662Z,1.01
2019-04-16T00:47:51.394Z,0.99
2019-04-16T00:50:20.300Z,1.32
2019-04-16T00:52:50.872Z,1.42
2019-04-16T00:55:21.524Z,1.48
2019-04-16T00:57:52.225Z,1.41
2019-04-16T01:00:22.518Z,1.41
2019-04-16T01:02:52.760Z,1.30
2019-04-16T01:05:22.984Z,1.41
2019-04-16T01:07:53.353Z,1.38
2019-04-16T01:10:23.915Z,1.53
2019-04-16T01:12:54.573Z,1.49
2019-04-16T01:15:32.062Z,1.50
2019-04-16T01:18:04.337Z,1.43
2019-04-16T01:20:34.482Z,1.42
2019-04-16T01:23:05.129Z,1.31
2019-04-16T01:25:35.452Z,1.39
2019-04-16T01:28:17.019Z,1.33
2019-04-16T01:31:08.267Z,1.43
2019-04-16T01:33:47.417Z,1.31
2019-04-16T01:36:25.320Z,1.33
2019-04-16T01:39:15.599Z,1.31
2019-04-16T01:41:36.520Z,1.16
2019-04-16T01:44:06.719Z,1.23
2019-04-16T01:46:36.962Z,1.22
2019-04-16T01:49:10.071Z,1.17
2019-04-16T01:51:39.102Z,1.08
2019-04-16T01:54:09.323Z,1.06
2019-04-16T01:56:39.554Z,1.05
2019-04-16T01:59:09.767Z,0.98
2019-04-16T02:01:40.299Z,0.99
2019-04-16T02:04:13.351Z,0.84
2019-04-16T02:06:43.989Z,0.69
2019-04-16T02:09:22.510Z,0.57
2019-04-16T02:11:46.545Z,0.49
2019-04-16T02:14:20.438Z,0.38
2019-04-16T02:16:49.269Z,0.23
2019-04-16T02:19:19.553Z,0.13
2019-04-16T02:21:49.806Z,0.02
2019-04-16T02:24:20.667Z,-0.11
2019-04-16T02:26:54.631Z,-0.13
2019-04-16T02:29:23.746Z,-0.18
2019-04-16T02:31:54.038Z,-0.29
2019-04-16T02:34:25.639Z,-0.38
2019-04-16T02:37:00.514Z,-0.49
2019-04-16T02:39:47.218Z,-0.63
2019-04-16T02:42:00.503Z,-0.77
2019-04-16T02:44:31.516Z,-0.73
2019-04-16T02:47:06.371Z,-0.53
2019-04-16T02:49:34.095Z,-0.48
2019-04-16T02:52:06.129Z,-0.49
2019-04-16T02:54:39.480Z,-0.56
2019-04-16T02:57:25.802Z,-0.63
2019-04-16T02:59:53.041Z,-0.63
2019-04-16T03:02:27.855Z,-0.81
2019-04-16T03:05:08.705Z,-0.90
2019-04-16T03:07:39.059Z,-0.94
2019-04-16T03:10:13.255Z,-0.96
2019-04-16T03:12:41.653Z,-1.13
2019-04-16T03:15:12.878Z,-1.18
2019-04-16T03:17:44.577Z,-1.40
2019-04-16T03:20:20.817Z,-1.54
2019-04-16T03:22:51.359Z,-1.65
2019-04-16T03:25:23.152Z,-1.69
2019-04-16T03:27:54.407Z,-1.64
2019-04-16T03:30:25.791Z,-1.65
2019-04-16T03:32:56.149Z,-1.71
2019-04-16T03:35:26.869Z,-1.71
2019-04-16T03:37:57.693Z,-1.83
2019-04-16T03:40:27.986Z,-1.93
2019-04-16T03:43:03.965Z,-1.92
2019-04-16T03:45:32.280Z,-1.94
2019-04-16T03:48:02.668Z,-1.96
2019-04-16T03:50:33.303Z,-2.07
2019-04-16T03:53:03.943Z,-2.14
2019-04-16T03:55:34.436Z,-2.17
2019-04-16T03:58:06.113Z,-2.19
2019-04-16T04:00:36.933Z,-2.21
2019-04-16T04:03:08.278Z,-2.24
2019-04-16T04:05:38.501Z,-2.19
2019-04-16T04:08:08.741Z,-2.12
2019-04-16T04:10:42.017Z,-2.07
2019-04-16T04:13:17.267Z,-1.99
2019-04-16T04:15:46.262Z,-1.86
2019-04-16T04:18:16.860Z,-1.75
2019-04-16T04:20:50.748Z,-1.62
2019-04-16T04:23:19.906Z,-1.52
2019-04-16T04:25:50.665Z,-1.43
2019-04-16T04:28:20.967Z,-1.35
2019-04-16T04:30:51.196Z,-1.08
2019-04-16T04:33:42.627Z,-0.85
2019-04-16T04:36:11.876Z,-0.77
2019-04-16T04:38:42.123Z,-0.57
2019-04-16T04:41:12.342Z,-0.44
2019-04-16T04:43:42.972Z,-0.25
2019-04-16T04:46:15.059Z,0.21
2019-04-16T04:48:45.335Z,1.75
2019-04-16T04:51:15.598Z,3.30
2019-04-16T04:53:47.570Z,4.44
2019-04-16T04:56:19.614Z,4.70
2019-04-16T04:58:50.284Z,5.26
2019-04-16T05:01:20.519Z,5.85
2019-04-16T05:03:58.400Z,6.62
2019-04-16T05:06:36.580Z,8.23
2019-04-16T05:09:08.174Z,9.84
2019-04-16T05:11:38.843Z,11.22
2019-04-16T05:14:09.475Z,11.60
2019-04-16T05:16:40.030Z,12.77
2019-04-16T05:19:13.845Z,13.28
2019-04-16T05:21:44.152Z,12.69
2019-04-16T05:24:14.368Z,12.61
2019-04-16T05:26:44.582Z,11.68
2019-04-16T05:29:17.429Z,10.54
2019-04-16T05:31:47.187Z,10.45
2019-04-16T05:34:18.332Z,9.90
2019-04-16T05:37:01.516Z,9.22
2019-04-16T05:39:34.936Z,9.09
2019-04-16T05:42:05.292Z,9.53
2019-04-16T05:44:36.096Z,9.67
2019-04-16T05:47:06.419Z,9.41
2019-04-16T05:49:36.648Z,9.19
2019-04-16T05:52:07.983Z,10.13
2019-04-16T05:54:45.743Z,10.21
2019-04-16T05:57:26.201Z,10.76
2019-04-16T05:59:55.618Z,11.97
2019-04-16T06:02:42.049Z,13.42
2019-04-16T06:05:28.129Z,14.08
2019-04-16T06:08:25.698Z,13.83
2019-04-16T06:10:53.837Z,13.89
2019-04-16T06:13:28.408Z,14.77
2019-04-16T06:15:58.884Z,15.63
2019-04-16T06:18:38.010Z,16.40
2019-04-16T06:21:13.444Z,17.35
2019-04-16T06:24:03.363Z,18.80
2019-04-16T06:26:40.379Z,20.78
2019-04-16T06:29:15.094Z,21.53
2019-04-16T06:31:57.167Z,22.51
2019-04-16T06:34:31.799Z,23.07
2019-04-16T06:37:03.706Z,22.71
2019-04-16T06:39:47.845Z,21.93
2019-04-16T06:42:25.874Z,21.64
2019-04-16T06:44:58.019Z,21.95
2019-04-16T06:47:45.211Z,22.96
2019-04-16T06:50:32.098Z,23.73
2019-04-16T06:53:03.080Z,24.19
2019-04-16T06:55:37.139Z,24.63
2019-04-16T06:58:19.593Z,25.62
2019-04-16T07:01:07.196Z,26.34
2019-04-16T07:03:42.670Z,27.08
2019-04-16T07:06:29.597Z,27.03
2019-04-16T07:09:23.799Z,27.04
2019-04-16T07:11:54.558Z,27.24
2019-04-16T07:14:23.602Z,27.91
2019-04-16T07:16:54.099Z,28.35
2019-04-16T07:19:25.326Z,28.06
2019-04-16T07:21:55.640Z,28.67
2019-04-16T07:24:30.169Z,29.57
2019-04-16T07:27:24.379Z,29.17
2019-04-16T07:30:04.907Z,28.98
2019-04-16T07:32:32.356Z,28.51
2019-04-16T07:35:20.948Z,27.78
2019-04-16T07:38:11.384Z,28.11
2019-04-16T07:40:58.269Z,28.21
2019-04-16T07:43:46.276Z,29.04
2019-04-16T07:46:27.527Z,28.82
2019-04-16T07:48:59.823Z,28.56
2019-04-16T07:51:35.747Z,28.21
2019-04-16T07:54:21.718Z,27.43
2019-04-16T07:56:53.634Z,24.77
2019-04-16T07:59:24.899Z,24.19
2019-04-16T08:01:55.793Z,23.88
2019-04-16T08:04:29.249Z,24.49
2019-04-16T08:06:59.342Z,24.86
2019-04-16T08:09:33.582Z,25.46
2019-04-16T08:12:03.036Z,26.00
2019-04-16T08:14:33.302Z,25.41
2019-04-16T08:17:03.727Z,24.29
2019-04-16T08:19:37.053Z,23.84
2019-04-16T08:22:07.627Z,24.46
2019-04-16T08:24:42.118Z,23.96
2019-04-16T08:27:17.943Z,24.51
2019-04-16T08:29:45.412Z,24.88
2019-04-16T08:32:16.275Z,23.71
2019-04-16T08:34:48.739Z,23.86
2019-04-16T08:37:20.095Z,23.13
2019-04-16T08:39:52.315Z,24.03
2019-04-16T08:42:25.227Z,25.00
2019-04-16T08:44:55.322Z,26.21
2019-04-16T08:47:27.636Z,27.03
2019-04-16T08:49:57.887Z,25.78
2019-04-16T08:52:28.094Z,25.14
2019-04-16T08:54:58.312Z,24.83
2019-04-16T08:57:32.066Z,24.54
2019-04-16T09:00:01.964Z,23.15
2019-04-16T09:02:33.407Z,23.00
2019-04-16T09:05:06.535Z,22.12
2019-04-16T09:07:39.852Z,21.77
2019-04-16T09:10:18.119Z,21.13
2019-04-16T09:13:02.042Z,22.38
2019-04-16T09:15:20.741Z,23.43
2019-04-16T09:17:53.950Z,23.42
2019-04-16T09:20:25.866Z,23.24
2019-04-16T09:22:58.834Z,22.85
2019-04-16T09:25:35.393Z,22.84
2019-04-16T09:28:17.662Z,22.07
2019-04-16T09:30:49.692Z,21.43
2019-04-16T09:33:20.539Z,21.20
2019-04-16T09:36:04.768Z,19.93
2019-04-16T09:38:45.138Z,19.94
2019-04-16T09:41:31.818Z,19.51
2019-04-16T09:44:03.681Z,19.40
2019-04-16T09:46:50.294Z,19.83
2019-04-16T09:49:06.238Z,20.20
2019-04-16T09:51:37.857Z,19.35
2019-04-16T09:54:12.519Z,19.37
2019-04-16T09:56:40.360Z,20.07
2019-04-16T09:59:15.744Z,19.71
2019-04-16T10:01:48.554Z,18.93
2019-04-16T10:04:20.287Z,18.49
2019-04-16T10:06:52.567Z,17.84
2019-04-16T10:09:23.228Z,17.86
2019-04-16T10:11:57.233Z,16.94
2019-04-16T10:14:27.800Z,16.76
2019-04-16T10:16:58.071Z,17.25
2019-04-16T10:19:28.363Z,16.98
2019-04-16T10:21:58.575Z,16.07
2019-04-16T10:24:46.849Z,15.62
2019-04-16T10:27:19.128Z,15.07
2019-04-16T10:29:49.445Z,15.22
2019-04-16T10:32:19.665Z,15.10
2019-04-16T10:34:50.302Z,14.72
2019-04-16T10:37:20.992Z,14.62
2019-04-16T10:39:53.033Z,14.57
2019-04-16T10:42:30.683Z,14.47
2019-04-16T10:45:18.960Z,14.66
2019-04-16T10:47:49.348Z,14.88
2019-04-16T10:50:39.815Z,14.98
2019-04-16T10:53:26.316Z,14.98
2019-04-16T10:56:14.267Z,14.86
2019-04-16T10:58:55.447Z,14.22
2019-04-16T11:01:30.377Z,13.81
2019-04-16T11:04:00.958Z,13.69
2019-04-16T11:06:35.326Z,13.69
2019-04-16T11:09:07.518Z,13.87
2019-04-16T11:11:37.776Z,14.10
2019-04-16T11:14:08.574Z,14.27
2019-04-16T11:16:40.849Z,14.31
2019-04-16T11:19:11.687Z,14.46
2019-04-16T11:21:41.929Z,14.63
2019-04-16T11:24:12.183Z,14.77
2019-04-16T11:26:44.511Z,14.68
2019-04-16T11:29:14.962Z,14.43
2019-04-16T11:31:45.559Z,14.28
2019-04-16T11:34:15.912Z,14.28
2019-04-16T11:36:47.040Z,13.92
2019-04-16T11:39:17.343Z,13.84
2019-04-16T11:41:47.635Z,13.36
2019-04-16T11:44:18.054Z,12.84
2019-04-16T11:46:48.608Z,12.84
2019-04-16T11:49:18.956Z,12.66
2019-04-16T11:51:49.672Z,12.72
2019-04-16T11:54:19.961Z,12.82
2019-04-16T11:56:50.187Z,12.95
2019-04-16T11:59:20.458Z,12.82
2019-04-16T12:02:01.577Z,12.69
2019-04-16T12:04:39.657Z,12.77
2019-04-16T12:07:25.358Z,12.94
2019-04-16T12:10:13.287Z,13.08
2019-04-16T12:12:51.196Z,13.33
2019-04-16T12:15:27.014Z,13.57
2019-04-16T12:18:07.821Z,13.92
2019-04-16T12:20:54.752Z,13.85
2019-04-16T12:23:36.054Z,13.74
2019-04-16T12:26:24.462Z,13.74
2019-04-16T12:28:56.319Z,13.58
2019-04-16T12:31:38.478Z,13.45
2019-04-16T12:34:13.496Z,13.15
2019-04-16T12:36:50.628Z,13.20
2019-04-16T12:39:36.005Z,13.40
2019-04-16T12:42:10.940Z,13.42
2019-04-16T12:44:45.583Z,13.02
2019-04-16T12:47:20.073Z,12.77
2019-04-16T12:49:55.467Z,12.65
2019-04-16T12:52:41.141Z,12.76
2019-04-16T12:55:23.692Z,12.43
2019-04-16T12:57:59.011Z,12.43
2019-04-16T13:00:40.664Z,12.27
2019-04-16T13:03:18.269Z,12.28
2019-04-16T13:05:50.937Z,12.10
2019-04-16T13:08:43.560Z,11.78
2019-04-16T13:11:15.887Z,11.64
2019-04-16T13:14:03.689Z,11.09
2019-04-16T13:16:46.090Z,10.77
2019-04-16T13:19:34.543Z,10.30
2019-04-16T13:22:07.526Z,10.01
2019-04-16T13:24:57.590Z,9.82
2019-04-16T13:27:32.846Z,9.59
2019-04-16T13:30:05.261Z,9.36
2019-04-16T13:32:35.578Z,9.20
2019-04-16T13:35:08.347Z,9.14
2019-04-16T13:37:38.598Z,9.13
2019-04-16T13:40:14.352Z,8.99
2019-04-16T13:42:46.598Z,8.74
2019-04-16T13:45:25.590Z,8.57
2019-04-16T13:47:55.862Z,8.37
2019-04-16T13:50:42.990Z,8.18
2019-04-16T13:53:28.971Z,8.09
2019-04-16T13:56:18.828Z,7.98
2019-04-16T13:58:51.136Z,7.84
2019-04-16T14:01:25.889Z,7.80
2019-04-16T14:03:57.066Z,7.85
2019-04-16T14:06:27.910Z,7.89
2019-04-16T14:08:58.242Z,7.79
2019-04-16T14:11:28.521Z,7.78
2019-04-16T14:13:58.765Z,7.86
2019-04-16T14:16:28.999Z,7.97
2019-04-16T14:19:02.559Z,7.92
2019-04-16T14:21:31.288Z,7.87
2019-04-16T14:24:01.519Z,7.77
2019-04-16T14:26:33.921Z,7.83
2019-04-16T14:29:07.878Z,7.90
2019-04-16T14:31:40.259Z,7.95
2019-04-16T14:34:13.932Z,7.99
2019-04-16T14:36:44.549Z,8.11
2019-04-16T14:39:16.927Z,8.16
2019-04-16T14:41:49.924Z,8.17
2019-04-16T14:44:20.857Z,8.25
2019-04-16T14:46:51.195Z,8.09
2019-04-16T14:49:21.446Z,8.11
2019-04-16T14:51:51.700Z,8.08
2019-04-16T14:54:23.744Z,8.19
2019-04-16T14:56:55.623Z,8.14
2019-04-16T14:59:35.269Z,7.99
2019-04-16T15:02:04.424Z,8.04
2019-04-16T15:04:36.305Z,8.16
2019-04-16T15:07:08.538Z,8.21
2019-04-16T15:09:47.105Z,8.34
2019-04-16T15:12:35.736Z,8.39
2019-04-16T15:15:26.793Z,8.53
2019-04-16T15:18:14.244Z,8.60
2019-04-16T15:20:52.453Z,8.64
2019-04-16T15:23:27.145Z,8.80
2019-04-16T15:26:17.049Z,8.81
2019-04-16T15:28:52.009Z,8.84
2019-04-16T15:31:24.313Z,8.84
2019-04-16T15:33:59.784Z,8.85
2019-04-16T15:36:31.798Z,8.86
2019-04-16T15:39:09.223Z,8.85
2019-04-16T15:41:57.349Z,8.85
2019-04-16T15:44:32.104Z,8.80
2019-04-16T15:47:13.942Z,8.80
2019-04-16T15:49:49.313Z,8.75
2019-04-16T15:52:22.263Z,8.66
2019-04-16T15:54:54.573Z,8.60
2019-04-16T15:57:46.219Z,8.53
2019-04-16T16:00:19.450Z,8.54
2019-04-16T16:03:08.113Z,8.63
2019-04-16T16:05:40.411Z,8.53
2019-04-16T16:08:22.343Z,8.49
2019-04-16T16:10:57.544Z,8.44
2019-04-16T16:13:28.175Z,8.45
2019-04-16T16:15:58.440Z,8.37
2019-04-16T16:18:28.685Z,8.33
2019-04-16T16:20:59.168Z,8.35
2019-04-16T16:23:34.098Z,8.30
2019-04-16T16:26:02.514Z,8.37
2019-04-16T16:28:33.124Z,8.41
2019-04-16T16:31:03.969Z,8.31
2019-04-16T16:33:34.292Z,8.26
2019-04-16T16:36:06.542Z,8.22
2019-04-16T16:38:36.842Z,8.22
2019-04-16T16:41:07.566Z,8.23
2019-04-16T16:43:39.155Z,8.22
2019-04-16T16:46:13.493Z,8.28
2019-04-16T16:48:43.414Z,8.28
2019-04-16T16:51:14.757Z,8.28
2019-04-16T16:54:02.570Z,8.27
2019-04-16T16:56:43.221Z,8.26
2019-04-16T16:59:30.396Z,8.25
2019-04-16T17:02:20.326Z,8.20
2019-04-16T17:04:55.173Z,8.18
2019-04-16T17:07:25.519Z,8.13
2019-04-16T17:09:55.861Z,8.09
2019-04-16T17:12:26.100Z,8.05
2019-04-16T17:14:56.725Z,8.01
2019-04-16T17:17:27.076Z,7.98
2019-04-16T17:19:57.362Z,7.98
2019-04-16T17:22:27.637Z,7.94
2019-04-16T17:24:57.954Z,7.89
2019-04-16T17:27:28.260Z,7.87
2019-04-16T17:29:58.561Z,7.84
2019-04-16T17:32:29.300Z,7.80
2019-04-16T17:34:59.717Z,7.79
2019-04-16T17:37:31.465Z,7.77
2019-04-16T17:40:03.362Z,7.76
2019-04-16T17:42:37.663Z,7.71
2019-04-16T17:45:25.302Z,7.65
2019-04-16T17:48:13.293Z,7.62
2019-04-16T17:51:02.295Z,7.61
2019-04-16T17:53:34.193Z,7.59
2019-04-16T17:56:22.351Z,7.52
2019-04-16T17:58:57.211Z,7.47
2019-04-16T18:01:46.028Z,7.44
2019-04-16T18:04:19.268Z,7.40
2019-04-16T18:06:57.478Z,7.38
2019-04-16T18:09:36.661Z,7.41
2019-04-16T18:12:16.976Z,7.42
2019-04-16T18:14:59.664Z,7.35
2019-04-16T18:17:47.217Z,7.36
2019-04-16T18:20:33.362Z,7.36
2019-04-16T18:23:12.138Z,7.35
2019-04-16T18:25:57.683Z,7.33
2019-04-16T18:28:38.298Z,7.33
2019-04-16T18:31:16.236Z,7.37
2019-04-16T18:33:57.008Z,7.36
2019-04-16T18:36:35.187Z,7.32
2019-04-16T18:39:07.563Z,7.20
2019-04-16T18:41:44.445Z,7.20
2019-04-16T18:44:19.230Z,7.17
2019-04-16T18:47:05.063Z,7.12
2019-04-16T18:49:36.990Z,7.12
2019-04-16T18:52:07.539Z,7.10
2019-04-16T18:54:37.843Z,7.07
2019-04-16T18:57:08.773Z,7.01
2019-04-16T18:59:39.021Z,6.99
2019-04-16T19:02:10.811Z,6.97
2019-04-16T19:04:41.050Z,6.97
2019-04-16T19:07:11.298Z,6.94
2019-04-16T19:09:41.566Z,6.93
2019-04-16T19:12:12.390Z,7.00
2019-04-16T19:14:44.323Z,6.99
2019-04-16T19:17:16.706Z,7.05
2019-04-16T19:19:46.959Z,7.04
2019-04-16T19:22:17.619Z,7.06
2019-04-16T19:24:47.953Z,6.98
2019-04-16T19:27:18.223Z,7.00
2019-04-16T19:29:48.491Z,6.95
2019-04-16T19:32:18.737Z,6.97
2019-04-16T19:34:49.042Z,6.93
2019-04-16T19:37:19.722Z,6.92
2019-04-16T19:39:50.056Z,6.85
2019-04-16T19:42:20.687Z,6.75
2019-04-16T19:44:51.002Z,6.80
2019-04-16T19:47:23.303Z,6.71
2019-04-16T19:49:53.216Z,6.72
2019-04-16T19:52:23.842Z,6.66
2019-04-16T19:54:54.139Z,6.58
2019-04-16T19:57:24.386Z,6.62
2019-04-16T19:59:55.095Z,6.56
2019-04-16T20:02:25.824Z,6.58
2019-04-16T20:04:56.160Z,6.59
2019-04-16T20:07:32.894Z,6.58
2019-04-16T20:10:03.172Z,6.62
2019-04-16T20:12:35.138Z,6.61
2019-04-16T20:15:09.385Z,6.60
2019-04-16T20:17:39.006Z,6.57
2019-04-16T20:20:09.618Z,6.62
2019-04-16T20:22:40.809Z,6.59
2019-04-16T20:25:11.557Z,6.59
2019-04-16T20:27:41.974Z,6.57
2019-04-16T20:30:14.080Z,6.61
2019-04-16T20:32:44.420Z,6.61
2019-04-16T20:35:17.895Z,6.60
2019-04-16T20:37:46.649Z,6.61
2019-04-16T20:40:17.819Z,6.60
2019-04-16T20:42:49.330Z,6.66
2019-04-16T20:45:21.268Z,6.61
2019-04-16T20:47:51.593Z,6.59
2019-04-16T20:50:23.619Z,6.58
2019-04-16T20:52:53.860Z,6.58
2019-04-16T20:55:24.449Z,6.56
2019-04-16T20:57:55.296Z,6.53
2019-04-16T21:00:32.659Z,6.54
2019-04-16T21:03:03.815Z,6.55
2019-04-16T21:05:36.575Z,6.54
2019-04-16T21:08:08.562Z,6.49
2019-04-16T21:10:40.066Z,6.47
2019-04-16T21:13:10.262Z,6.43
2019-04-16T21:15:40.567Z,6.42
2019-04-16T21:18:12.155Z,6.38
2019-04-16T21:20:44.762Z,6.34
2019-04-16T21:23:15.032Z,6.33
2019-04-16T21:25:46.727Z,6.30
2019-04-16T21:28:27.253Z,6.29
2019-04-16T21:30:59.505Z,6.28
2019-04-16T21:33:34.608Z,6.22
2019-04-16T21:36:06.537Z,6.14
2019-04-16T21:38:50.126Z,6.02
2019-04-16T21:41:20.384Z,5.88
2019-04-16T21:43:50.624Z,5.77
2019-04-16T21:46:21.186Z,5.65
2019-04-16T21:48:52.019Z,5.57
2019-04-16T21:51:24.310Z,5.44
2019-04-16T21:53:57.359Z,5.30
2019-04-16T21:56:27.384Z,5.22
2019-04-16T21:58:58.084Z,5.12
2019-04-16T22:01:32.773Z,5.04
2019-04-16T22:04:14.379Z,4.96
2019-04-16T22:06:45.453Z,4.89
2019-04-16T22:09:15.748Z,4.87
2019-04-16T22:11:46.091Z,4.91
2019-04-16T22:14:22.031Z,4.95
2019-04-16T22:16:48.721Z,4.93
2019-04-16T22:19:19.305Z,4.91
2019-04-16T22:21:49.671Z,4.87
2019-04-16T22:24:22.901Z,4.81
2019-04-16T22:26:52.673Z,4.84
2019-04-16T22:29:23.370Z,4.87
2019-04-16T22:31:57.109Z,4.90
2019-04-16T22:34:26.765Z,4.93
2019-04-16T22:36:57.152Z,4.93
2019-04-16T22:39:31.810Z,4.94
2019-04-16T22:42:20.162Z,4.89
2019-04-16T22:44:50.546Z,4.86
2019-04-16T22:47:32.621Z,4.82
2019-04-16T22:50:14.782Z,4.76
2019-04-16T22:52:36.105Z,4.82
2019-04-16T22:55:06.783Z,4.78
2019-04-16T22:57:37.882Z,4.80
2019-04-16T23:00:12.873Z,4.77
2019-04-16T23:02:48.087Z,4.76
2019-04-16T23:05:16.309Z,4.73
2019-04-16T23:07:46.650Z,4.73
2019-04-16T23:10:17.829Z,4.70
2019-04-16T23:12:49.270Z,4.65
2019-04-16T23:15:19.537Z,4.59
2019-04-16T23:17:49.757Z,4.56
2019-04-16T23:20:29.185Z,4.48
2019-04-16T23:22:52.258Z,4.38
2019-04-16T23:25:26.905Z,4.32
2019-04-16T23:27:55.150Z,4.25
2019-04-16T23:30:25.434Z,4.30
2019-04-16T23:32:58.996Z,4.25
2019-04-16T23:35:28.344Z,4.21
2019-04-16T23:38:00.909Z,4.18
2019-04-16T23:40:30.923Z,4.05
2019-04-16T23:43:03.226Z,4.00
2019-04-16T23:45:33.624Z,3.97
2019-04-16T23:48:13.968Z,3.98
2019-04-16T23:50:45.730Z,4.05
2019-04-16T23:53:17.740Z,4.12
2019-04-16T23:56:05.726Z,4.07
2019-04-16T23:58:43.602Z,4.01
